Time;durP1;ratioP1;P1;durP2;ratioP2;P2;SDS_P1;SDS_P2;PMS_P1;PMS_P2;Temp;Humidity;BMP_temperature;BMP_pressure;BME280_temperature;BME280_humidity;BME280_pressure;Samples;Min_cycle;Max_cycle;Signal;HPM_P1;HPM_P2
2023/01/18 00:01:58;;;;;;;18.33;9.47;;;-1.80;99.90;;;;;;5004238;28;20030;-67
2023/01/18 00:04:23;;;;;;;18.57;10.17;;;-1.70;99.90;;;;;;5005920;28;20419;-66
2023/01/18 00:06:49;;;;;;;31.23;16.87;;;-1.70;99.90;;;;;;5006415;28;20467;-67
2023/01/18 00:09:14;;;;;;;29.07;12.80;;;-1.80;99.90;;;;;;5005173;28;20163;-67
2023/01/18 00:11:40;;;;;;;21.23;10.23;;;-1.80;99.90;;;;;;5002752;28;20029;-67
2023/01/18 00:14:06;;;;;;;21.40;9.57;;;-1.80;99.90;;;;;;5003818;28;20030;-66
2023/01/18 00:16:32;;;;;;;17.50;8.57;;;-1.90;99.90;;;;;;5013894;28;20029;-67
2023/01/18 00:18:58;;;;;;;17.10;8.97;;;-1.90;99.90;;;;;;5005582;28;20018;-66
2023/01/18 00:21:26;;;;;;;22.57;8.83;;;-1.90;99.90;;;;;;5009851;28;20034;-67
2023/01/18 00:23:53;;;;;;;19.93;9.90;;;-1.90;99.90;;;;;;5021568;28;20092;-67
2023/01/18 00:26:19;;;;;;;29.40;12.20;;;-1.80;99.90;;;;;;5014276;28;20022;-66
2023/01/18 00:28:45;;;;;;;29.57;15.60;;;-1.80;99.90;;;;;;5014393;28;20029;-67
2023/01/18 00:31:13;;;;;;;33.50;13.67;;;-1.80;99.90;;;;;;5005728;28;20038;-66
2023/01/18 00:33:41;;;;;;;24.00;11.57;;;-1.90;99.90;;;;;;4988679;28;20089;-65
2023/01/18 00:36:10;;;;;;;29.10;9.13;;;-1.80;99.90;;;;;;5002839;28;20100;-66
2023/01/18 00:38:36;;;;;;;27.97;8.83;;;-1.80;99.90;;;;;;5006454;28;20026;-66
2023/01/18 00:41:02;;;;;;;26.23;10.03;;;-1.80;99.90;;;;;;5004977;28;20522;-67
2023/01/18 00:43:39;;;;;;;19.40;8.53;;;-1.80;99.90;;;;;;5007889;28;20038;-65
2023/01/18 00:46:14;;;;;;;22.67;9.53;;;-1.90;99.90;;;;;;5004760;28;20091;-66
2023/01/18 00:48:41;;;;;;;19.90;8.90;;;-1.90;99.90;;;;;;5007443;28;20100;-67
2023/01/18 00:51:12;;;;;;;16.47;7.33;;;-1.90;99.90;;;;;;4993310;28;20021;-66
2023/01/18 00:53:38;;;;;;;14.90;7.93;;;-2.00;99.90;;;;;;5002946;28;20049;-66
2023/01/18 00:56:06;;;;;;;21.63;10.80;;;-2.00;99.90;;;;;;5004917;28;20313;-66
2023/01/18 00:58:32;;;;;;;20.93;9.17;;;-2.00;99.90;;;;;;4995484;28;20490;-66
2023/01/18 01:00:57;;;;;;;20.57;8.80;;;-2.10;99.90;;;;;;5002137;28;20034;-66
2023/01/18 01:03:23;;;;;;;18.63;8.70;;;-2.10;99.90;;;;;;5005104;28;20060;-66
2023/01/18 01:08:33;;;;;;;19.55;8.70;;;-2.10;99.90;;;;;;5012116;28;20171;-67
2023/01/18 01:11:10;;;;;;;18.57;9.40;;;-2.00;99.90;;;;;;4997417;28;20039;-66
2023/01/18 01:27:17;;;;;;;16.90;8.30;;;-1.90;99.90;;;;;;5001283;28;20633;-66
2023/01/18 01:29:42;;;;;;;18.50;8.13;;;-1.90;99.90;;;;;;4995117;28;20042;-66
2023/01/18 01:32:08;;;;;;;21.93;9.87;;;-1.90;99.90;;;;;;5001820;28;20905;-66
2023/01/18 01:34:34;;;;;;;21.70;9.93;;;-2.00;99.90;;;;;;4979134;28;20307;-66
2023/01/18 01:37:00;;;;;;;18.90;8.60;;;-2.00;99.90;;;;;;4993172;28;20026;-65
2023/01/18 01:39:26;;;;;;;22.90;11.13;;;-2.10;99.90;;;;;;5003985;28;20030;-66
2023/01/18 01:41:52;;;;;;;18.70;9.47;;;-2.10;99.90;;;;;;4997296;28;20468;-66
2023/01/18 01:44:22;;;;;;;20.20;8.53;;;-2.20;99.90;;;;;;5000989;28;20045;-67
2023/01/18 01:46:52;;;;;;;22.37;8.60;;;-2.20;99.90;;;;;;5000600;28;20034;-66
2023/01/18 01:49:38;;;;;;;21.23;9.93;;;-2.20;99.90;;;;;;4998479;28;20049;-66
2023/01/18 01:52:14;;;;;;;19.07;8.27;;;-2.30;99.90;;;;;;4999497;28;20041;-66
2023/01/18 01:54:58;;;;;;;19.87;8.70;;;-2.40;99.90;;;;;;5000100;28;20061;-65
2023/01/18 01:57:29;;;;;;;24.33;9.55;;;-2.40;99.90;;;;;;4997325;28;20042;-66
2023/01/18 02:00:03;;;;;;;19.83;8.83;;;-2.40;99.90;;;;;;5003167;28;20030;-66
2023/01/18 02:02:31;;;;;;;15.85;8.68;;;-2.50;99.90;;;;;;5011025;28;20017;-66
2023/01/18 02:04:58;;;;;;;20.37;8.27;;;-2.50;99.90;;;;;;5012617;28;20033;-67
2023/01/18 02:07:27;;;;;;;61.33;18.07;;;-2.60;99.90;;;;;;5014877;28;20038;-66
2023/01/18 02:09:56;;;;;;;38.13;13.57;;;-2.60;99.90;;;;;;5004336;28;20400;-66
2023/01/18 02:12:21;;;;;;;55.97;16.13;;;-2.60;99.90;;;;;;5001211;28;20030;-66
2023/01/18 02:14:47;;;;;;;37.07;13.23;;;-2.60;99.90;;;;;;4997296;28;20091;-66
2023/01/18 02:17:40;;;;;;;36.40;12.40;;;-2.70;99.90;;;;;;5005463;28;20030;-66
2023/01/18 02:20:24;;;;;;;29.83;9.97;;;-2.70;99.90;;;;;;5009261;28;20026;-67
2023/01/18 02:23:00;;;;;;;25.00;10.07;;;-2.70;99.90;;;;;;5007421;28;20051;-64
2023/01/18 02:25:38;;;;;;;25.30;9.47;;;-2.70;99.90;;;;;;5015203;28;20112;-65
2023/01/18 02:28:44;;;;;;;24.30;10.97;;;-2.80;99.90;;;;;;5005591;28;20844;-66
2023/01/18 02:31:16;;;;;;;23.17;10.20;;;-2.80;99.90;;;;;;5009663;28;20185;-66
2023/01/18 02:33:56;;;;;;;22.23;10.53;;;-2.80;99.90;;;;;;4983292;28;20062;-67
2023/01/18 02:36:30;;;;;;;27.20;10.93;;;-2.80;99.90;;;;;;5007790;28;20037;-66
2023/01/18 02:39:02;;;;;;;30.70;11.30;;;-2.80;99.90;;;;;;5010082;28;20133;-65
2023/01/18 02:47:16;;;;;;;30.23;10.00;;;-2.90;99.90;;;;;;5015708;28;20057;-65
2023/01/18 02:49:42;;;;;;;29.17;11.37;;;-2.90;99.90;;;;;;4998055;28;20038;-66
2023/01/18 02:52:46;;;;;;;21.30;9.67;;;-2.90;99.90;;;;;;5008956;28;20022;-67
2023/01/18 02:55:26;;;;;;;25.17;8.23;;;-2.90;99.90;;;;;;5011853;28;21069;-66
2023/01/18 02:57:56;;;;;;;21.17;9.73;;;-2.90;99.90;;;;;;5007640;28;20076;-67
2023/01/18 03:00:24;;;;;;;32.27;9.30;;;-2.90;99.90;;;;;;5004619;28;20026;-67
2023/01/18 03:02:51;;;;;;;24.20;10.67;;;-2.90;99.90;;;;;;5012121;28;20030;-65
2023/01/18 03:05:18;;;;;;;27.67;10.77;;;-2.90;99.90;;;;;;5002468;28;20037;-66
2023/01/18 03:07:53;;;;;;;28.67;9.40;;;-2.90;99.90;;;;;;5016361;28;20120;-66
2023/01/18 03:10:20;;;;;;;22.37;10.47;;;-2.90;99.90;;;;;;5011299;28;20066;-66
2023/01/18 03:12:56;;;;;;;21.93;10.63;;;-2.90;99.90;;;;;;5016867;28;20752;-65
2023/01/18 03:15:43;;;;;;;23.03;9.80;;;-2.90;99.90;;;;;;5012974;28;20034;-65
2023/01/18 03:18:36;;;;;;;23.83;9.30;;;-2.90;99.90;;;;;;5015082;28;20085;-66
2023/01/18 03:21:04;;;;;;;25.30;10.90;;;-2.90;99.90;;;;;;5017431;28;20030;-67
2023/01/18 03:23:38;;;;;;;25.10;10.20;;;-3.00;99.90;;;;;;5016209;28;20046;-66
2023/01/18 03:26:18;;;;;;;23.20;9.87;;;-2.90;99.90;;;;;;5001199;28;20052;-65
2023/01/18 03:34:41;;;;;;;26.97;10.90;;;-3.00;99.90;;;;;;4990934;28;20056;-66
2023/01/18 03:37:12;;;;;;;23.20;9.33;;;-3.00;99.90;;;;;;5006914;28;20038;-66
2023/01/18 03:39:43;;;;;;;23.77;10.60;;;-2.90;99.90;;;;;;5011079;28;20041;-65
2023/01/18 03:42:17;;;;;;;28.73;9.87;;;-2.90;99.90;;;;;;5008126;28;20042;-64
2023/01/18 03:44:51;;;;;;;30.33;9.85;;;-2.80;99.90;;;;;;5005790;28;20459;-66
2023/01/18 03:47:16;;;;;;;33.78;11.60;;;-2.80;99.90;;;;;;5011263;28;20083;-65
2023/01/18 03:49:42;;;;;;;26.40;10.40;;;-2.90;99.90;;;;;;4998927;28;20026;-65
2023/01/18 03:52:36;;;;;;;22.50;10.93;;;-2.90;99.90;;;;;;5003173;28;20446;-66
2023/01/18 03:55:15;;;;;;;27.55;11.10;;;-3.00;99.90;;;;;;5005516;28;20026;-65
2023/01/18 03:57:53;;;;;;;35.87;12.63;;;-3.00;99.90;;;;;;5007560;28;20044;-66
2023/01/18 04:00:19;;;;;;;19.50;10.70;;;-3.10;99.90;;;;;;4999397;28;20018;-66
2023/01/18 04:02:47;;;;;;;23.77;10.47;;;-3.10;99.90;;;;;;5006667;28;20034;-65
2023/01/18 04:05:14;;;;;;;25.53;10.23;;;-3.10;99.90;;;;;;5004216;28;20476;-66
2023/01/18 04:07:39;;;;;;;24.90;11.90;;;-3.20;99.90;;;;;;5003093;28;20060;-66
2023/01/18 04:10:06;;;;;;;32.93;10.97;;;-3.20;99.90;;;;;;5006544;28;20061;-66
2023/01/18 04:12:33;;;;;;;33.43;11.73;;;-3.20;99.90;;;;;;5013003;28;20044;-65
2023/01/18 04:14:59;;;;;;;22.43;10.57;;;-3.10;99.90;;;;;;5019361;28;20049;-66
2023/01/18 04:17:25;;;;;;;35.83;11.43;;;-3.10;99.90;;;;;;5023106;28;20021;-65
2023/01/18 04:19:51;;;;;;;24.50;9.97;;;-3.10;99.90;;;;;;5018636;28;20379;-64
2023/01/18 04:22:17;;;;;;;29.13;11.73;;;-3.10;99.90;;;;;;5015736;28;20040;-66
2023/01/18 04:24:42;;;;;;;27.93;10.87;;;-3.10;99.90;;;;;;5004352;28;20033;-65
2023/01/18 04:27:08;;;;;;;27.73;11.37;;;-3.10;99.90;;;;;;5012828;28;20060;-66
2023/01/18 04:29:34;;;;;;;24.87;11.03;;;-3.10;99.90;;;;;;5021948;28;20034;-66
2023/01/18 04:31:59;;;;;;;24.80;11.20;;;-3.10;99.90;;;;;;5022598;28;20021;-66
2023/01/18 04:34:25;;;;;;;35.33;10.33;;;-3.10;99.90;;;;;;5005753;28;20108;-66
2023/01/18 04:36:51;;;;;;;27.53;12.30;;;-3.10;99.90;;;;;;5009249;28;20391;-66
2023/01/18 04:39:16;;;;;;;28.97;10.90;;;-3.10;99.90;;;;;;5007479;28;20108;-66
2023/01/18 04:41:43;;;;;;;29.57;11.17;;;-3.20;99.90;;;;;;4997486;28;20553;-66
2023/01/18 04:44:09;;;;;;;25.30;11.77;;;-3.10;99.90;;;;;;5013311;28;20088;-67
2023/01/18 04:46:37;;;;;;;24.10;10.97;;;-3.10;99.90;;;;;;5017415;28;20860;-67
2023/01/18 04:49:03;;;;;;;22.60;11.10;;;-3.10;99.90;;;;;;5012472;28;20022;-67
2023/01/18 04:51:30;;;;;;;24.13;10.83;;;-3.10;99.90;;;;;;5006586;28;20105;-66
2023/01/18 04:53:57;;;;;;;35.43;11.70;;;-3.10;99.90;;;;;;5004053;28;20026;-67
2023/01/18 04:56:22;;;;;;;23.37;10.87;;;-3.10;99.90;;;;;;4999743;28;20033;-66
2023/01/18 04:58:50;;;;;;;23.50;10.67;;;-3.10;99.90;;;;;;5003447;28;20544;-66
2023/01/18 05:01:16;;;;;;;26.57;11.40;;;-3.10;99.90;;;;;;4998164;28;20022;-67
2023/01/18 05:03:42;;;;;;;21.37;9.20;;;-3.10;99.90;;;;;;5006287;28;20064;-67
2023/01/18 05:06:13;;;;;;;24.10;10.93;;;-3.20;99.90;;;;;;5005527;28;20026;-66
2023/01/18 05:08:39;;;;;;;23.47;10.50;;;-3.20;99.90;;;;;;5005489;28;20030;-66
2023/01/18 05:11:16;;;;;;;22.10;11.50;;;-3.20;99.90;;;;;;5003649;28;20048;-67
2023/01/18 05:13:43;;;;;;;28.03;11.60;;;-3.30;99.90;;;;;;5006810;28;20485;-66
2023/01/18 05:16:20;;;;;;;22.97;10.23;;;-3.30;99.90;;;;;;5003688;28;20030;-66
2023/01/18 05:18:45;;;;;;;22.13;10.77;;;-3.30;99.90;;;;;;5012510;28;20519;-67
2023/01/18 05:21:12;;;;;;;22.10;10.37;;;-3.30;99.90;;;;;;5011420;28;20101;-67
2023/01/18 05:23:39;;;;;;;27.10;11.40;;;-3.30;99.90;;;;;;5001561;28;20082;-67
2023/01/18 05:26:13;;;;;;;26.30;10.87;;;-3.30;99.90;;;;;;5017767;28;20087;-66
2023/01/18 05:28:39;;;;;;;52.08;18.00;;;-3.30;99.90;;;;;;5011097;28;20092;-68
2023/01/18 05:31:05;;;;;;;52.27;19.83;;;-3.30;99.90;;;;;;5006214;28;20034;-67
2023/01/18 05:33:31;;;;;;;43.90;16.10;;;-3.30;99.90;;;;;;5005662;28;20033;-67
2023/01/18 05:35:57;;;;;;;20.70;10.87;;;-3.30;99.90;;;;;;4989946;28;20123;-67
2023/01/18 05:38:23;;;;;;;21.23;9.23;;;-3.30;99.90;;;;;;5009135;28;20488;-67
2023/01/18 05:40:52;;;;;;;27.50;11.47;;;-3.40;99.90;;;;;;5007078;28;20037;-65
2023/01/18 05:43:22;;;;;;;27.17;12.30;;;-3.40;99.90;;;;;;5006337;28;20034;-66
2023/01/18 05:45:48;;;;;;;36.40;13.13;;;-3.40;99.90;;;;;;5020647;28;20052;-67
2023/01/18 05:48:14;;;;;;;33.90;11.80;;;-3.40;99.90;;;;;;5015795;28;20029;-67
2023/01/18 05:50:44;;;;;;;30.93;12.53;;;-3.40;99.90;;;;;;5018000;28;20144;-67
2023/01/18 05:53:10;;;;;;;27.70;11.80;;;-3.50;99.90;;;;;;4996410;28;20034;-67
2023/01/18 05:55:36;;;;;;;33.73;14.37;;;-3.40;99.90;;;;;;5005714;28;20033;-67
2023/01/18 05:58:02;;;;;;;36.93;15.07;;;-3.40;99.90;;;;;;5011491;28;20034;-66
2023/01/18 06:00:27;;;;;;;51.13;18.40;;;-3.40;99.90;;;;;;5015187;28;20038;-67
2023/01/18 06:02:53;;;;;;;41.07;15.10;;;-3.40;99.90;;;;;;5003554;28;20404;-67
2023/01/18 06:05:20;;;;;;;43.37;16.77;;;-3.40;99.90;;;;;;5019887;28;20487;-67
2023/01/18 06:07:49;;;;;;;43.90;17.83;;;-3.40;99.90;;;;;;5010471;28;20050;-67
2023/01/18 06:10:15;;;;;;;54.03;20.37;;;-3.40;99.90;;;;;;5006706;28;20069;-67
2023/01/18 06:12:41;;;;;;;105.57;38.80;;;-3.30;99.90;;;;;;5009582;28;20065;-67
2023/01/18 06:15:07;;;;;;;85.13;32.23;;;-3.20;99.90;;;;;;5016818;28;20602;-67
2023/01/18 06:17:34;;;;;;;63.53;25.87;;;-3.20;99.90;;;;;;5021428;28;20049;-68
2023/01/18 06:20:00;;;;;;;52.50;21.33;;;-3.20;99.90;;;;;;5004351;28;20045;-67
2023/01/18 06:22:26;;;;;;;63.17;25.17;;;-3.20;99.90;;;;;;5012987;28;20029;-67
2023/01/18 06:24:51;;;;;;;93.40;36.70;;;-3.20;99.90;;;;;;5001469;28;20037;-67
2023/01/18 06:27:17;;;;;;;67.27;27.20;;;-3.20;99.90;;;;;;5011343;28;20034;-66
2023/01/18 06:29:42;;;;;;;77.17;27.70;;;-3.20;99.90;;;;;;5010606;28;20037;-66
2023/01/18 06:32:08;;;;;;;63.77;27.17;;;-3.30;99.90;;;;;;5007944;28;20030;-67
2023/01/18 06:34:35;;;;;;;63.33;27.17;;;-3.30;99.90;;;;;;4997198;28;20053;-68
2023/01/18 06:37:01;;;;;;;50.57;19.93;;;-3.30;99.90;;;;;;5008144;28;20061;-67
2023/01/18 06:39:27;;;;;;;38.80;18.47;;;-3.30;99.90;;;;;;5009836;28;20041;-67
2023/01/18 06:41:53;;;;;;;38.73;15.43;;;-3.30;99.90;;;;;;5008996;28;20061;-67
2023/01/18 06:44:18;;;;;;;31.43;13.80;;;-3.30;99.90;;;;;;5008198;28;20577;-67
2023/01/18 06:46:44;;;;;;;27.53;13.10;;;-3.20;99.90;;;;;;5018937;28;20041;-67
2023/01/18 06:49:10;;;;;;;38.03;15.37;;;-3.20;99.90;;;;;;5008940;28;20030;-67
2023/01/18 06:51:37;;;;;;;38.63;17.27;;;-3.20;99.90;;;;;;5008142;28;20112;-66
2023/01/18 06:54:02;;;;;;;39.50;17.63;;;-3.20;99.90;;;;;;5007991;28;20065;-67
2023/01/18 06:56:28;;;;;;;33.27;14.43;;;-3.20;99.90;;;;;;5014794;28;20633;-67
2023/01/18 06:58:56;;;;;;;35.03;14.53;;;-3.20;99.90;;;;;;5014967;28;20036;-67
2023/01/18 07:01:22;;;;;;;34.50;14.57;;;-3.10;99.90;;;;;;5006379;28;20077;-66
2023/01/18 07:03:48;;;;;;;39.13;14.63;;;-3.10;99.90;;;;;;5008107;28;20129;-67
2023/01/18 07:06:13;;;;;;;33.10;14.67;;;-3.00;99.90;;;;;;5009561;28;20105;-67
2023/01/18 07:08:39;;;;;;;31.33;14.07;;;-3.00;99.90;;;;;;5008547;28;20033;-66
2023/01/18 07:11:06;;;;;;;33.73;14.17;;;-2.90;99.90;;;;;;5020189;28;20038;-67
2023/01/18 07:13:32;;;;;;;26.10;13.87;;;-2.90;99.90;;;;;;5004658;28;20022;-67
2023/01/18 07:16:00;;;;;;;31.23;13.70;;;-2.80;99.90;;;;;;5009427;28;20036;-68
2023/01/18 07:18:27;;;;;;;31.93;12.33;;;-2.80;99.90;;;;;;5008717;28;20455;-66
2023/01/18 07:20:58;;;;;;;27.97;12.87;;;-2.70;99.90;;;;;;5008321;28;20026;-67
2023/01/18 07:23:23;;;;;;;29.53;11.83;;;-2.70;99.90;;;;;;5016573;28;20038;-66
2023/01/18 07:26:06;;;;;;;28.93;11.93;;;-2.60;99.90;;;;;;5009726;28;20018;-67
2023/01/18 07:28:33;;;;;;;33.30;13.37;;;-2.60;99.90;;;;;;5006589;28;20045;-67
2023/01/18 07:30:59;;;;;;;26.87;12.20;;;-2.60;99.90;;;;;;5014837;28;20073;-67
2023/01/18 07:33:25;;;;;;;27.33;11.37;;;-2.60;99.90;;;;;;5006370;28;20038;-67
2023/01/18 07:35:52;;;;;;;26.70;11.70;;;-2.60;99.90;;;;;;4985671;28;20057;-67
2023/01/18 07:38:19;;;;;;;29.37;12.20;;;-2.60;99.90;;;;;;5003261;28;20025;-67
2023/01/18 07:40:46;;;;;;;34.93;12.17;;;-2.50;99.90;;;;;;5004004;28;20034;-67
2023/01/18 07:43:12;;;;;;;51.33;13.83;;;-2.50;99.90;;;;;;5006360;28;20065;-67
2023/01/18 07:45:38;;;;;;;40.20;13.23;;;-2.60;99.90;;;;;;5003232;28;20176;-66
2023/01/18 07:48:04;;;;;;;33.33;12.90;;;-2.50;99.90;;;;;;5008678;28;20042;-66
2023/01/18 07:50:32;;;;;;;38.27;14.43;;;-2.50;99.90;;;;;;5011459;28;20072;-66
2023/01/18 07:53:03;;;;;;;42.37;13.07;;;-2.50;99.90;;;;;;5013952;28;20472;-66
2023/01/18 07:55:32;;;;;;;45.93;14.90;;;-2.50;99.90;;;;;;5012730;28;20029;-66
2023/01/18 07:57:58;;;;;;;58.00;15.67;;;-2.50;99.90;;;;;;5006192;28;20029;-67
2023/01/18 08:00:25;;;;;;;59.20;14.60;;;-2.40;99.90;;;;;;5004769;28;20047;-66
2023/01/18 08:02:51;;;;;;;45.30;12.93;;;-2.40;99.90;;;;;;5005619;28;20087;-66
2023/01/18 08:05:20;;;;;;;35.83;13.17;;;-2.40;99.90;;;;;;5017960;28;20106;-67
2023/01/18 08:07:46;;;;;;;58.63;13.83;;;-2.40;99.90;;;;;;5005251;28;20045;-66
2023/01/18 08:10:13;;;;;;;35.67;13.03;;;-2.40;99.90;;;;;;4981397;28;20045;-66
2023/01/18 08:12:39;;;;;;;33.07;13.00;;;-2.40;99.90;;;;;;5008866;28;20100;-67
2023/01/18 08:15:05;;;;;;;47.93;14.97;;;-2.30;99.90;;;;;;5009403;28;20030;-67
2023/01/18 08:17:32;;;;;;;42.07;14.97;;;-2.30;99.90;;;;;;5004099;28;20115;-67
2023/01/18 08:19:58;;;;;;;34.93;13.20;;;-2.40;99.90;;;;;;5010370;28;22204;-67
2023/01/18 08:22:23;;;;;;;43.70;15.63;;;-2.30;99.90;;;;;;5006508;28;20028;-67
2023/01/18 08:24:49;;;;;;;47.30;14.70;;;-2.30;99.90;;;;;;5003933;28;20412;-67
2023/01/18 08:27:15;;;;;;;44.03;13.47;;;-2.30;99.90;;;;;;5010307;28;20033;-66
2023/01/18 08:29:41;;;;;;;60.13;13.20;;;-2.30;99.90;;;;;;5006194;28;20148;-67
2023/01/18 08:32:06;;;;;;;78.47;15.00;;;-2.30;99.90;;;;;;5002443;28;20516;-67
2023/01/18 08:34:32;;;;;;;39.23;14.33;;;-2.30;99.90;;;;;;4995827;28;20037;-66
2023/01/18 08:36:57;;;;;;;51.50;16.03;;;-2.20;99.90;;;;;;5011531;28;20038;-67
2023/01/18 08:39:23;;;;;;;80.90;15.63;;;-2.20;99.90;;;;;;5008553;28;20026;-67
2023/01/18 08:41:49;;;;;;;77.60;16.33;;;-2.20;99.90;;;;;;5003269;28;20053;-66
2023/01/18 08:44:14;;;;;;;44.73;14.13;;;-2.10;99.90;;;;;;5004586;28;20037;-66
2023/01/18 08:46:40;;;;;;;53.37;16.53;;;-2.10;99.90;;;;;;5007017;28;20030;-67
2023/01/18 08:49:05;;;;;;;55.10;15.93;;;-2.00;99.90;;;;;;5006829;28;20464;-67
2023/01/18 08:51:31;;;;;;;67.33;16.93;;;-1.90;99.90;;;;;;5007610;28;20072;-66
2023/01/18 08:53:58;;;;;;;109.70;17.47;;;-1.90;99.90;;;;;;5005670;28;20072;-67
2023/01/18 08:56:24;;;;;;;51.10;13.83;;;-1.80;99.90;;;;;;5009002;28;20087;-67
2023/01/18 08:58:50;;;;;;;81.63;16.57;;;-1.80;99.90;;;;;;5006084;28;20049;-67
2023/01/18 09:01:17;;;;;;;40.90;14.77;;;-1.90;99.90;;;;;;5001384;28;20057;-67
2023/01/18 09:03:43;;;;;;;37.70;13.87;;;-1.80;99.90;;;;;;5003019;28;20038;-67
2023/01/18 09:06:10;;;;;;;53.63;14.17;;;-1.70;99.90;;;;;;5007924;28;20037;-67
2023/01/18 09:08:36;;;;;;;51.30;15.20;;;-1.60;99.90;;;;;;5012675;28;20034;-67
2023/01/18 09:11:06;;;;;;;95.23;18.53;;;-1.40;99.90;;;;;;5011744;28;20487;-67
2023/01/18 09:13:32;;;;;;;74.35;15.40;;;-1.40;99.90;;;;;;5011942;28;20044;-67
2023/01/18 09:16:02;;;;;;;33.95;13.95;;;-1.40;99.90;;;;;;5008118;28;20034;-67
2023/01/18 09:18:31;;;;;;;55.17;14.85;;;-1.40;99.90;;;;;;5007867;28;20117;-67
2023/01/18 09:20:57;;;;;;;73.00;13.82;;;-1.40;99.90;;;;;;5031855;28;20478;-67
2023/01/18 09:23:24;;;;;;;42.33;13.10;;;-1.30;99.90;;;;;;5032438;28;20035;-66
2023/01/18 09:26:03;;;;;;;33.90;13.90;;;-1.00;99.90;;;;;;5007076;28;20049;-66
2023/01/18 09:28:29;;;;;;;39.08;12.63;;;-0.90;99.90;;;;;;5018089;28;20045;-67
2023/01/18 09:30:59;;;;;;;28.67;12.98;;;-0.80;99.90;;;;;;5006584;28;20046;-66
2023/01/18 09:33:24;;;;;;;36.13;14.77;;;-0.70;99.90;;;;;;5010173;28;20048;-67
2023/01/18 09:35:50;;;;;;;28.73;12.85;;;-0.60;99.90;;;;;;4996675;28;20050;-66
2023/01/18 09:38:15;;;;;;;35.63;13.40;;;-0.70;99.90;;;;;;5021470;28;20022;-67
2023/01/18 09:40:44;;;;;;;41.15;13.13;;;-0.70;99.90;;;;;;5006333;28;20038;-67
2023/01/18 09:43:16;;;;;;;38.38;14.13;;;-0.60;99.90;;;;;;5009178;28;20033;-67
2023/01/18 09:45:46;;;;;;;34.40;13.13;;;-0.40;99.90;;;;;;5013502;28;20033;-66
2023/01/18 09:48:22;;;;;;;24.27;12.38;;;-0.50;99.90;;;;;;5011136;28;20041;-67
2023/01/18 09:50:48;;;;;;;32.55;13.80;;;-0.60;99.90;;;;;;5008276;28;20033;-67
2023/01/18 09:53:47;;;;;;;33.53;13.23;;;-0.60;99.90;;;;;;5007921;28;20032;-67
2023/01/18 09:56:19;;;;;;;35.55;14.48;;;-0.50;99.90;;;;;;5010543;28;20033;-66
2023/01/18 09:59:02;;;;;;;32.15;14.05;;;-0.50;99.90;;;;;;5014209;28;20483;-68
2023/01/18 10:01:32;;;;;;;32.53;13.60;;;-0.40;99.90;;;;;;5017259;28;20116;-67
2023/01/18 10:04:00;;;;;;;29.75;12.95;;;-0.30;99.90;;;;;;5009480;28;20490;-67
2023/01/18 10:06:35;;;;;;;30.88;14.25;;;-0.20;99.90;;;;;;5013523;28;20037;-67
2023/01/18 10:09:05;;;;;;;29.88;13.25;;;-0.10;99.90;;;;;;5009274;28;20038;-66
2023/01/18 10:11:46;;;;;;;26.48;12.95;;;0.10;99.90;;;;;;5007980;28;20061;-67
2023/01/18 10:14:32;;;;;;;35.60;12.95;;;0.10;99.90;;;;;;5012534;28;20033;-67
2023/01/18 10:17:03;;;;;;;36.65;15.00;;;0.10;99.90;;;;;;5015562;28;20037;-67
2023/01/18 10:19:31;;;;;;;31.23;14.93;;;-0.10;99.90;;;;;;5011275;28;20025;-66
2023/01/18 10:22:11;;;;;;;33.63;13.43;;;-0.10;99.90;;;;;;5004689;28;20025;-66
2023/01/18 10:24:40;;;;;;;35.20;14.13;;;0.00;99.90;;;;;;5007745;28;20033;-67
2023/01/18 10:27:35;;;;;;;28.92;12.93;;;0.00;99.90;;;;;;5011519;28;20062;-67
2023/01/18 10:30:26;;;;;;;29.58;13.00;;;0.10;99.90;;;;;;5007507;28;20061;-67
2023/01/18 10:32:59;;;;;;;32.70;14.50;;;0.20;99.90;;;;;;5008032;28;20069;-67
2023/01/18 10:35:34;;;;;;;33.38;14.20;;;0.30;99.90;;;;;;4998981;28;20053;-67
2023/01/18 10:38:05;;;;;;;32.83;13.85;;;0.50;99.90;;;;;;5002607;28;20120;-67
2023/01/18 10:40:32;;;;;;;30.90;14.00;;;0.50;99.90;;;;;;5011838;28;20431;-67
2023/01/18 10:43:01;;;;;;;32.58;14.07;;;0.70;99.90;;;;;;5009511;28;20452;-67
2023/01/18 10:45:32;;;;;;;31.98;13.80;;;0.90;99.90;;;;;;5004087;28;20048;-66
2023/01/18 10:48:17;;;;;;;35.22;15.77;;;0.90;99.90;;;;;;5002774;28;20037;-67
2023/01/18 10:50:48;;;;;;;28.33;13.60;;;1.00;99.90;;;;;;5012313;28;20034;-67
2023/01/18 10:53:26;;;;;;;26.85;12.68;;;1.20;99.90;;;;;;4999771;28;20042;-66
2023/01/18 10:55:54;;;;;;;38.28;13.82;;;1.20;99.90;;;;;;5002336;28;20034;-66
2023/01/18 10:58:39;;;;;;;26.98;12.85;;;1.20;99.90;;;;;;5001784;28;20022;-67
2023/01/18 11:01:06;;;;;;;34.00;15.48;;;1.10;99.90;;;;;;4998372;28;20045;-66
2023/01/18 11:03:43;;;;;;;31.95;14.18;;;1.10;99.90;;;;;;5006184;28;20034;-67
2023/01/18 11:06:09;;;;;;;27.13;13.27;;;1.30;99.90;;;;;;5000394;28;20030;-66
2023/01/18 11:08:35;;;;;;;36.67;15.38;;;1.40;99.90;;;;;;5005271;28;20107;-66
2023/01/18 11:11:02;;;;;;;29.40;13.60;;;1.50;99.90;;;;;;5002477;28;20028;-64
2023/01/18 11:13:49;;;;;;;32.10;12.80;;;1.30;99.90;;;;;;5004192;28;20030;-67
2023/01/18 11:16:20;;;;;;;32.75;12.45;;;1.50;99.90;;;;;;5007619;28;20111;-67
2023/01/18 11:19:04;;;;;;;27.92;14.82;;;1.60;99.90;;;;;;5010408;28;20026;-67
2023/01/18 11:21:42;;;;;;;33.10;14.63;;;1.60;99.90;;;;;;5017337;28;20032;-69
2023/01/18 11:24:37;;;;;;;24.88;12.35;;;1.60;99.90;;;;;;5012193;28;20045;-64
2023/01/18 11:27:11;;;;;;;30.60;13.23;;;1.50;99.90;;;;;;5003870;28;20046;-65
2023/01/18 11:29:41;;;;;;;32.50;12.88;;;1.30;99.90;;;;;;5001502;28;20072;-65
2023/01/18 11:32:22;;;;;;;29.75;14.02;;;1.30;99.90;;;;;;5005824;28;20503;-65
2023/01/18 11:34:50;;;;;;;31.33;14.00;;;1.20;99.90;;;;;;4982037;28;20022;-65
2023/01/18 11:37:29;;;;;;;28.25;12.40;;;1.30;99.90;;;;;;5007430;28;20526;-64
2023/01/18 11:39:55;;;;;;;29.02;14.68;;;1.30;99.90;;;;;;5001647;28;20269;-65
2023/01/18 11:42:29;;;;;;;25.77;13.13;;;1.30;99.90;;;;;;5001323;28;20045;-64
2023/01/18 11:45:23;;;;;;;36.17;18.38;;;1.30;99.90;;;;;;5014352;28;20112;-64
2023/01/18 11:48:02;;;;;;;24.10;12.07;;;1.40;99.90;;;;;;5021639;28;20037;-68
2023/01/18 11:50:34;;;;;;;34.10;17.48;;;1.30;99.90;;;;;;5006387;28;20794;-64
2023/01/18 11:53:35;;;;;;;25.60;13.55;;;1.30;99.90;;;;;;5008856;28;20032;-68
2023/01/18 11:56:20;;;;;;;25.70;12.27;;;1.40;99.90;;;;;;5016439;28;20108;-67
2023/01/18 11:58:48;;;;;;;25.10;11.27;;;1.50;99.90;;;;;;5001969;28;20498;-65
2023/01/18 12:02:04;;;;;;;25.60;13.18;;;1.50;99.90;;;;;;5010151;28;20024;-67
2023/01/18 12:04:45;;;;;;;21.17;11.73;;;1.60;99.90;;;;;;4975415;28;20042;-67
2023/01/18 12:07:42;;;;;;;28.27;12.48;;;1.60;99.90;;;;;;5014486;28;20032;-66
2023/01/18 12:10:16;;;;;;;25.92;12.50;;;1.60;99.90;;;;;;5003836;28;20099;-67
2023/01/18 12:13:13;;;;;;;27.80;12.50;;;1.60;99.90;;;;;;5002563;28;20034;-68
2023/01/18 12:16:07;;;;;;;33.55;12.35;;;1.50;99.90;;;;;;5006243;28;20033;-68
2023/01/18 12:19:03;;;;;;;26.27;13.13;;;1.60;99.90;;;;;;5014206;28;20615;-67
2023/01/18 12:21:39;;;;;;;30.20;12.02;;;1.60;99.90;;;;;;4996222;28;20041;-67
2023/01/18 12:24:32;;;;;;;24.77;11.45;;;1.60;99.90;;;;;;4997558;28;20027;-66
2023/01/18 12:27:06;;;;;;;36.10;14.20;;;1.70;99.90;;;;;;5004650;28;20033;-65
2023/01/18 12:29:41;;;;;;;28.13;13.80;;;1.60;99.90;;;;;;4997864;28;20030;-67
2023/01/18 12:32:48;;;;;;;42.28;15.05;;;1.50;99.90;;;;;;5016632;28;20383;-67
2023/01/18 12:35:37;;;;;;;35.13;14.38;;;1.40;99.90;;;;;;4968516;28;20038;-66
2023/01/18 12:38:26;;;;;;;30.90;13.82;;;1.40;99.90;;;;;;4998919;28;20131;-67
2023/01/18 12:41:18;;;;;;;29.60;14.75;;;1.30;99.90;;;;;;5002515;28;20834;-66
2023/01/18 12:44:00;;;;;;;30.80;13.48;;;1.30;99.90;;;;;;4995678;28;20041;-66
2023/01/18 12:47:15;;;;;;;30.08;14.27;;;1.20;99.90;;;;;;5002225;28;20518;-66
2023/01/18 12:49:46;;;;;;;27.92;14.25;;;1.20;99.90;;;;;;4952596;28;20069;-66
2023/01/18 12:52:15;;;;;;;38.55;15.63;;;1.30;99.90;;;;;;5001281;28;20037;-66
2023/01/18 12:54:58;;;;;;;29.90;15.15;;;1.20;99.90;;;;;;5000536;28;20028;-67
2023/01/18 12:57:25;;;;;;;32.45;14.20;;;1.20;99.90;;;;;;5006221;28;20084;-67
2023/01/18 13:00:04;;;;;;;28.20;13.57;;;1.20;99.90;;;;;;5007743;28;20033;-66
2023/01/18 13:02:38;;;;;;;30.80;14.05;;;1.30;99.90;;;;;;5004277;28;20105;-66
2023/01/18 13:05:17;;;;;;;36.78;16.05;;;1.30;99.90;;;;;;5016007;28;20041;-67
2023/01/18 13:08:05;;;;;;;27.42;13.25;;;1.30;99.90;;;;;;4964806;28;1167317;-66
2023/01/18 13:10:31;;;;;;;27.83;13.90;;;1.30;99.90;;;;;;5000814;28;20029;-67
2023/01/18 13:12:57;;;;;;;30.55;14.65;;;1.30;99.90;;;;;;4998515;28;20125;-67
2023/01/18 13:15:42;;;;;;;29.80;14.45;;;1.30;99.90;;;;;;5004562;28;20068;-66
2023/01/18 13:18:20;;;;;;;26.77;13.38;;;1.30;99.90;;;;;;5010860;28;20030;-67
2023/01/18 13:21:15;;;;;;;25.67;12.63;;;1.20;99.90;;;;;;4998922;28;20432;-67